sensor_id;sensor_type;location;lat;lon;timestamp;temperature;humidity
2729;DHT22;1372;47.956;7.830;2023-06-22T00:01:28;20.00;99.90
2729;DHT22;1372;47.956;7.830;2023-06-22T00:03:57;20.10;99.90
2729;DHT22;1372;47.956;7.830;2023-06-22T00:06:26;20.10;99.90
2729;DHT22;1372;47.956;7.830;2023-06-22T00:08:55;20.10;99.90
2729;DHT22;1372;47.956;7.830;2023-06-22T00:11:28;20.00;99.90
2729;DHT22;1372;47.956;7.830;2023-06-22T00:13:58;19.90;99.90
2729;DHT22;1372;47.956;7.830;2023-06-22T00:16:27;19.90;99.90
2729;DHT22;1372;47.956;7.830;2023-06-22T00:18:56;19.80;99.90
2729;DHT22;1372;47.956;7.830;2023-06-22T00:21:30;19.70;99.90
2729;DHT22;1372;47.956;7.830;2023-06-22T00:23:59;19.70;99.90
2729;DHT22;1372;47.956;7.830;2023-06-22T00:26:32;19.80;99.90
2729;DHT22;1372;47.956;7.830;2023-06-22T00:29:00;19.70;99.90
2729;DHT22;1372;47.956;7.830;2023-06-22T00:31:29;19.60;99.90
2729;DHT22;1372;47.956;7.830;2023-06-22T00:33:58;19.60;99.90
2729;DHT22;1372;47.956;7.830;2023-06-22T00:36:30;19.60;99.90
2729;DHT22;1372;47.956;7.830;2023-06-22T00:39:01;19.60;99.90
2729;DHT22;1372;47.956;7.830;2023-06-22T00:41:32;19.60;99.90
2729;DHT22;1372;47.956;7.830;2023-06-22T00:44:01;19.60;99.90
2729;DHT22;1372;47.956;7.830;2023-06-22T00:46:31;19.60;99.90
2729;DHT22;1372;47.956;7.830;2023-06-22T00:49:02;19.50;99.90
2729;DHT22;1372;47.956;7.830;2023-06-22T00:51:33;19.50;99.90
2729;DHT22;1372;47.956;7.830;2023-06-22T00:54:05;19.50;99.90
2729;DHT22;1372;47.956;7.830;2023-06-22T00:56:36;19.30;99.90
2729;DHT22;1372;47.956;7.830;2023-06-22T00:59:04;19.30;99.90
2729;DHT22;1372;47.956;7.830;2023-06-22T01:01:33;19.30;99.90
2729;DHT22;1372;47.956;7.830;2023-06-22T01:04:06;19.30;99.90
2729;DHT22;1372;47.956;7.830;2023-06-22T01:06:44;19.20;99.90
2729;DHT22;1372;47.956;7.830;2023-06-22T01:09:28;19.20;99.90
2729;DHT22;1372;47.956;7.830;2023-06-22T01:12:04;19.30;99.90
2729;DHT22;1372;47.956;7.830;2023-06-22T01:14:41;19.20;99.90
2729;DHT22;1372;47.956;7.830;2023-06-22T01:17:13;19.10;99.90
2729;DHT22;1372;47.956;7.830;2023-06-22T01:19:45;19.20;99.90
2729;DHT22;1372;47.956;7.830;2023-06-22T01:22:16;19.20;99.90
2729;DHT22;1372;47.956;7.830;2023-06-22T01:24:55;19.10;99.90
2729;DHT22;1372;47.956;7.830;2023-06-22T01:30:30;19.20;99.90
2729;DHT22;1372;47.956;7.830;2023-06-22T01:33:04;19.20;99.90
2729;DHT22;1372;47.956;7.830;2023-06-22T01:35:34;19.20;99.90
2729;DHT22;1372;47.956;7.830;2023-06-22T01:38:04;19.10;99.90
2729;DHT22;1372;47.956;7.830;2023-06-22T01:40:37;19.20;99.90
2729;DHT22;1372;47.956;7.830;2023-06-22T01:43:06;19.30;99.90
2729;DHT22;1372;47.956;7.830;2023-06-22T01:45:39;19.30;99.90
2729;DHT22;1372;47.956;7.830;2023-06-22T01:48:08;19.20;99.90
2729;DHT22;1372;47.956;7.830;2023-06-22T01:50:39;19.20;99.90
2729;DHT22;1372;47.956;7.830;2023-06-22T01:53:09;19.40;99.90
2729;DHT22;1372;47.956;7.830;2023-06-22T01:55:37;19.30;99.90
2729;DHT22;1372;47.956;7.830;2023-06-22T01:58:09;19.30;99.90
2729;DHT22;1372;47.956;7.830;2023-06-22T02:00:40;19.10;99.90
2729;DHT22;1372;47.956;7.830;2023-06-22T02:03:16;19.10;99.90
2729;DHT22;1372;47.956;7.830;2023-06-22T02:05:50;19.10;99.90
2729;DHT22;1372;47.956;7.830;2023-06-22T02:08:23;19.00;99.90
2729;DHT22;1372;47.956;7.830;2023-06-22T02:10:54;19.00;99.90
2729;DHT22;1372;47.956;7.830;2023-06-22T02:13:26;19.00;99.90
2729;DHT22;1372;47.956;7.830;2023-06-22T02:16:00;19.00;99.90
2729;DHT22;1372;47.956;7.830;2023-06-22T02:18:32;19.00;99.90
2729;DHT22;1372;47.956;7.830;2023-06-22T02:21:03;19.00;99.90
2729;DHT22;1372;47.956;7.830;2023-06-22T02:23:31;18.90;99.90
2729;DHT22;1372;47.956;7.830;2023-06-22T02:26:05;18.90;99.90
2729;DHT22;1372;47.956;7.830;2023-06-22T02:28:33;19.00;99.90
2729;DHT22;1372;47.956;7.830;2023-06-22T02:31:04;18.90;99.90
2729;DHT22;1372;47.956;7.830;2023-06-22T02:33:32;18.80;99.90
2729;DHT22;1372;47.956;7.830;2023-06-22T02:36:01;18.80;99.90
2729;DHT22;1372;47.956;7.830;2023-06-22T02:38:32;18.90;99.90
2729;DHT22;1372;47.956;7.830;2023-06-22T02:41:02;18.90;99.90
2729;DHT22;1372;47.956;7.830;2023-06-22T02:43:30;18.70;99.90
2729;DHT22;1372;47.956;7.830;2023-06-22T02:45:59;18.70;99.90
2729;DHT22;1372;47.956;7.830;2023-06-22T02:48:32;18.60;99.90
2729;DHT22;1372;47.956;7.830;2023-06-22T02:51:01;18.60;99.90
2729;DHT22;1372;47.956;7.830;2023-06-22T02:53:29;18.70;99.90
2729;DHT22;1372;47.956;7.830;2023-06-22T02:56:00;18.70;99.90
2729;DHT22;1372;47.956;7.830;2023-06-22T02:58:30;18.70;99.90
2729;DHT22;1372;47.956;7.830;2023-06-22T03:01:05;18.60;99.90
2729;DHT22;1372;47.956;7.830;2023-06-22T03:03:35;18.60;99.90
2729;DHT22;1372;47.956;7.830;2023-06-22T03:06:04;18.60;99.90
2729;DHT22;1372;47.956;7.830;2023-06-22T03:08:33;18.50;99.90
2729;DHT22;1372;47.956;7.830;2023-06-22T03:11:02;18.50;99.90
2729;DHT22;1372;47.956;7.830;2023-06-22T03:13:30;18.50;99.90
2729;DHT22;1372;47.956;7.830;2023-06-22T03:15:59;18.50;99.90
2729;DHT22;1372;47.956;7.830;2023-06-22T03:18:28;18.60;99.90
2729;DHT22;1372;47.956;7.830;2023-06-22T03:20:58;18.50;99.90
2729;DHT22;1372;47.956;7.830;2023-06-22T03:23:29;18.50;99.90
2729;DHT22;1372;47.956;7.830;2023-06-22T03:25:58;18.50;99.90
2729;DHT22;1372;47.956;7.830;2023-06-22T03:28:27;18.40;99.90
2729;DHT22;1372;47.956;7.830;2023-06-22T03:30:57;18.40;99.90
2729;DHT22;1372;47.956;7.830;2023-06-22T03:33:26;18.40;99.90
2729;DHT22;1372;47.956;7.830;2023-06-22T03:35:55;18.30;99.90
2729;DHT22;1372;47.956;7.830;2023-06-22T03:38:25;18.30;99.90
2729;DHT22;1372;47.956;7.830;2023-06-22T03:40:56;18.40;99.90
2729;DHT22;1372;47.956;7.830;2023-06-22T03:43:25;18.40;99.90
2729;DHT22;1372;47.956;7.830;2023-06-22T03:45:53;18.40;99.90
2729;DHT22;1372;47.956;7.830;2023-06-22T03:48:22;18.30;99.90
2729;DHT22;1372;47.956;7.830;2023-06-22T03:50:51;18.30;99.90
2729;DHT22;1372;47.956;7.830;2023-06-22T03:53:20;18.20;99.90
2729;DHT22;1372;47.956;7.830;2023-06-22T03:55:51;18.30;99.90
2729;DHT22;1372;47.956;7.830;2023-06-22T03:58:23;18.30;99.90
2729;DHT22;1372;47.956;7.830;2023-06-22T04:00:52;18.30;99.90
2729;DHT22;1372;47.956;7.830;2023-06-22T04:03:21;18.30;99.90
2729;DHT22;1372;47.956;7.830;2023-06-22T04:05:50;18.20;99.90
2729;DHT22;1372;47.956;7.830;2023-06-22T04:08:21;18.40;99.90
2729;DHT22;1372;47.956;7.830;2023-06-22T04:10:52;18.40;99.90
2729;DHT22;1372;47.956;7.830;2023-06-22T04:13:20;18.40;99.90
2729;DHT22;1372;47.956;7.830;2023-06-22T04:15:50;18.60;99.90
2729;DHT22;1372;47.956;7.830;2023-06-22T04:18:19;18.80;99.90
2729;DHT22;1372;47.956;7.830;2023-06-22T04:20:48;19.00;99.90
2729;DHT22;1372;47.956;7.830;2023-06-22T04:23:17;19.10;99.90
2729;DHT22;1372;47.956;7.830;2023-06-22T04:25:46;19.10;99.90
2729;DHT22;1372;47.956;7.830;2023-06-22T04:28:16;19.20;99.90
2729;DHT22;1372;47.956;7.830;2023-06-22T04:30:45;19.20;99.90
2729;DHT22;1372;47.956;7.830;2023-06-22T04:33:15;19.20;99.90
2729;DHT22;1372;47.956;7.830;2023-06-22T04:35:45;19.30;99.90
2729;DHT22;1372;47.956;7.830;2023-06-22T04:38:17;19.30;99.90
2729;DHT22;1372;47.956;7.830;2023-06-22T04:40:48;19.40;99.90
2729;DHT22;1372;47.956;7.830;2023-06-22T04:43:19;19.40;99.90
2729;DHT22;1372;47.956;7.830;2023-06-22T04:45:48;19.30;99.90
2729;DHT22;1372;47.956;7.830;2023-06-22T04:48:19;19.20;99.90
2729;DHT22;1372;47.956;7.830;2023-06-22T04:50:48;19.20;99.90
2729;DHT22;1372;47.956;7.830;2023-06-22T04:53:17;19.30;99.90
2729;DHT22;1372;47.956;7.830;2023-06-22T04:55:46;19.20;99.90
2729;DHT22;1372;47.956;7.830;2023-06-22T04:58:16;19.30;99.90
2729;DHT22;1372;47.956;7.830;2023-06-22T05:00:48;19.30;99.90
2729;DHT22;1372;47.956;7.830;2023-06-22T05:03:19;19.40;99.90
2729;DHT22;1372;47.956;7.830;2023-06-22T05:05:48;19.40;99.90
2729;DHT22;1372;47.956;7.830;2023-06-22T05:08:17;19.40;99.90
2729;DHT22;1372;47.956;7.830;2023-06-22T05:10:46;19.50;99.90
2729;DHT22;1372;47.956;7.830;2023-06-22T05:13:33;19.60;99.90
2729;DHT22;1372;47.956;7.830;2023-06-22T05:16:06;19.60;99.90
2729;DHT22;1372;47.956;7.830;2023-06-22T05:18:37;19.60;99.90
2729;DHT22;1372;47.956;7.830;2023-06-22T05:21:06;19.60;99.90
2729;DHT22;1372;47.956;7.830;2023-06-22T05:23:35;19.70;99.90
2729;DHT22;1372;47.956;7.830;2023-06-22T05:26:04;19.70;99.90
2729;DHT22;1372;47.956;7.830;2023-06-22T05:28:33;19.80;99.90
2729;DHT22;1372;47.956;7.830;2023-06-22T05:31:02;19.80;99.90
2729;DHT22;1372;47.956;7.830;2023-06-22T05:33:32;19.90;99.90
2729;DHT22;1372;47.956;7.830;2023-06-22T05:36:01;20.00;99.90
2729;DHT22;1372;47.956;7.830;2023-06-22T05:38:30;20.00;99.90
2729;DHT22;1372;47.956;7.830;2023-06-22T05:40:59;20.00;99.90
2729;DHT22;1372;47.956;7.830;2023-06-22T05:43:28;20.10;99.90
2729;DHT22;1372;47.956;7.830;2023-06-22T05:45:56;20.10;99.90
2729;DHT22;1372;47.956;7.830;2023-06-22T05:48:26;20.20;99.90
2729;DHT22;1372;47.956;7.830;2023-06-22T05:50:56;20.20;99.90
2729;DHT22;1372;47.956;7.830;2023-06-22T05:53:25;20.30;99.90
2729;DHT22;1372;47.956;7.830;2023-06-22T05:55:56;20.30;99.90
2729;DHT22;1372;47.956;7.830;2023-06-22T05:58:27;20.30;99.90
2729;DHT22;1372;47.956;7.830;2023-06-22T06:00:56;20.40;99.90
2729;DHT22;1372;47.956;7.830;2023-06-22T06:03:27;20.40;99.90
2729;DHT22;1372;47.956;7.830;2023-06-22T06:06:01;20.50;99.90
2729;DHT22;1372;47.956;7.830;2023-06-22T06:08:30;20.60;99.90
2729;DHT22;1372;47.956;7.830;2023-06-22T06:10:59;20.70;99.90
2729;DHT22;1372;47.956;7.830;2023-06-22T06:13:28;20.80;99.90
2729;DHT22;1372;47.956;7.830;2023-06-22T06:15:59;20.90;99.90
2729;DHT22;1372;47.956;7.830;2023-06-22T06:18:28;20.90;99.90
2729;DHT22;1372;47.956;7.830;2023-06-22T06:21:01;21.00;99.90
2729;DHT22;1372;47.956;7.830;2023-06-22T06:23:30;21.10;99.90
2729;DHT22;1372;47.956;7.830;2023-06-22T06:25:58;21.20;99.90
2729;DHT22;1372;47.956;7.830;2023-06-22T06:28:28;21.20;99.90
2729;DHT22;1372;47.956;7.830;2023-06-22T06:30:57;21.30;99.90
2729;DHT22;1372;47.956;7.830;2023-06-22T06:33:28;21.30;99.90
2729;DHT22;1372;47.956;7.830;2023-06-22T06:35:58;21.40;99.90
2729;DHT22;1372;47.956;7.830;2023-06-22T06:38:30;21.50;99.90
2729;DHT22;1372;47.956;7.830;2023-06-22T06:40:59;21.60;99.90
2729;DHT22;1372;47.956;7.830;2023-06-22T06:43:28;21.70;99.90
2729;DHT22;1372;47.956;7.830;2023-06-22T06:45:57;21.60;99.90
2729;DHT22;1372;47.956;7.830;2023-06-22T06:48:26;21.70;99.90
2729;DHT22;1372;47.956;7.830;2023-06-22T06:50:55;21.70;99.90
2729;DHT22;1372;47.956;7.830;2023-06-22T06:53:26;21.70;99.90
2729;DHT22;1372;47.956;7.830;2023-06-22T06:55:57;21.70;99.90
2729;DHT22;1372;47.956;7.830;2023-06-22T06:58:25;21.70;99.90
2729;DHT22;1372;47.956;7.830;2023-06-22T07:00:58;21.70;99.90
2729;DHT22;1372;47.956;7.830;2023-06-22T07:03:27;21.70;99.90
2729;DHT22;1372;47.956;7.830;2023-06-22T07:05:58;21.60;99.90
2729;DHT22;1372;47.956;7.830;2023-06-22T07:08:27;21.60;99.90
2729;DHT22;1372;47.956;7.830;2023-06-22T07:10:58;21.60;99.90
2729;DHT22;1372;47.956;7.830;2023-06-22T07:13:30;21.60;99.90
2729;DHT22;1372;47.956;7.830;2023-06-22T07:16:01;21.80;99.90
2729;DHT22;1372;47.956;7.830;2023-06-22T07:18:30;22.00;99.90
2729;DHT22;1372;47.956;7.830;2023-06-22T07:20:59;22.00;99.90
2729;DHT22;1372;47.956;7.830;2023-06-22T07:23:28;22.10;99.90
2729;DHT22;1372;47.956;7.830;2023-06-22T07:25:58;22.20;99.90
2729;DHT22;1372;47.956;7.830;2023-06-22T07:28:29;22.30;99.90
2729;DHT22;1372;47.956;7.830;2023-06-22T07:31:01;22.40;99.90
2729;DHT22;1372;47.956;7.830;2023-06-22T07:33:30;22.50;99.90
2729;DHT22;1372;47.956;7.830;2023-06-22T07:35:59;22.50;99.90
2729;DHT22;1372;47.956;7.830;2023-06-22T07:38:28;22.50;99.90
2729;DHT22;1372;47.956;7.830;2023-06-22T07:41:02;22.60;99.90
2729;DHT22;1372;47.956;7.830;2023-06-22T07:43:32;22.60;99.90
2729;DHT22;1372;47.956;7.830;2023-06-22T07:46:02;22.50;99.90
2729;DHT22;1372;47.956;7.830;2023-06-22T07:48:31;22.40;99.90
2729;DHT22;1372;47.956;7.830;2023-06-22T07:51:00;22.40;99.90
2729;DHT22;1372;47.956;7.830;2023-06-22T07:53:31;22.50;99.90
2729;DHT22;1372;47.956;7.830;2023-06-22T07:56:01;22.50;99.90
2729;DHT22;1372;47.956;7.830;2023-06-22T07:58:34;22.70;99.90
2729;DHT22;1372;47.956;7.830;2023-06-22T08:01:05;22.70;99.90
2729;DHT22;1372;47.956;7.830;2023-06-22T08:03:36;22.80;99.90
2729;DHT22;1372;47.956;7.830;2023-06-22T08:06:07;22.90;99.90
2729;DHT22;1372;47.956;7.830;2023-06-22T08:08:37;23.00;99.90
2729;DHT22;1372;47.956;7.830;2023-06-22T08:11:07;23.00;99.90
2729;DHT22;1372;47.956;7.830;2023-06-22T08:13:36;23.10;99.90
2729;DHT22;1372;47.956;7.830;2023-06-22T08:16:05;23.10;99.90
2729;DHT22;1372;47.956;7.830;2023-06-22T08:18:34;23.10;99.90
2729;DHT22;1372;47.956;7.830;2023-06-22T08:21:03;23.20;99.90
2729;DHT22;1372;47.956;7.830;2023-06-22T08:23:32;23.20;99.90
2729;DHT22;1372;47.956;7.830;2023-06-22T08:26:04;23.30;99.90
2729;DHT22;1372;47.956;7.830;2023-06-22T08:28:35;23.30;99.90
2729;DHT22;1372;47.956;7.830;2023-06-22T08:31:05;23.40;99.90
2729;DHT22;1372;47.956;7.830;2023-06-22T08:33:35;23.50;99.90
2729;DHT22;1372;47.956;7.830;2023-06-22T08:36:15;23.60;99.90
2729;DHT22;1372;47.956;7.830;2023-06-22T08:38:43;23.70;99.90
2729;DHT22;1372;47.956;7.830;2023-06-22T08:41:17;23.70;99.90
2729;DHT22;1372;47.956;7.830;2023-06-22T08:43:46;23.80;99.90
2729;DHT22;1372;47.956;7.830;2023-06-22T08:46:15;23.80;99.90
2729;DHT22;1372;47.956;7.830;2023-06-22T08:48:47;23.90;99.90
2729;DHT22;1372;47.956;7.830;2023-06-22T08:51:16;23.90;99.90
2729;DHT22;1372;47.956;7.830;2023-06-22T08:53:47;23.90;99.90
2729;DHT22;1372;47.956;7.830;2023-06-22T08:56:17;24.00;99.90
2729;DHT22;1372;47.956;7.830;2023-06-22T08:58:47;24.00;99.90
2729;DHT22;1372;47.956;7.830;2023-06-22T09:01:17;24.10;99.90
2729;DHT22;1372;47.956;7.830;2023-06-22T09:03:46;24.20;99.90
2729;DHT22;1372;47.956;7.830;2023-06-22T09:06:24;24.20;99.90
2729;DHT22;1372;47.956;7.830;2023-06-22T09:08:53;24.30;99.90
2729;DHT22;1372;47.956;7.830;2023-06-22T09:11:23;24.40;99.90
2729;DHT22;1372;47.956;7.830;2023-06-22T09:13:52;24.50;99.90
2729;DHT22;1372;47.956;7.830;2023-06-22T09:16:21;24.70;99.90
2729;DHT22;1372;47.956;7.830;2023-06-22T09:18:53;24.70;99.90
2729;DHT22;1372;47.956;7.830;2023-06-22T09:21:23;24.90;99.90
2729;DHT22;1372;47.956;7.830;2023-06-22T09:23:52;25.00;99.90
2729;DHT22;1372;47.956;7.830;2023-06-22T09:26:21;25.10;99.90
2729;DHT22;1372;47.956;7.830;2023-06-22T09:28:52;25.20;99.90
2729;DHT22;1372;47.956;7.830;2023-06-22T09:31:21;25.30;99.90
2729;DHT22;1372;47.956;7.830;2023-06-22T09:33:52;25.30;99.90
2729;DHT22;1372;47.956;7.830;2023-06-22T09:36:25;25.40;99.90
2729;DHT22;1372;47.956;7.830;2023-06-22T09:38:54;25.50;99.90
2729;DHT22;1372;47.956;7.830;2023-06-22T09:41:27;25.50;99.90
2729;DHT22;1372;47.956;7.830;2023-06-22T09:43:57;25.60;99.90
2729;DHT22;1372;47.956;7.830;2023-06-22T09:46:25;25.60;99.90
2729;DHT22;1372;47.956;7.830;2023-06-22T09:48:55;25.60;99.90
2729;DHT22;1372;47.956;7.830;2023-06-22T09:51:24;25.80;99.90
2729;DHT22;1372;47.956;7.830;2023-06-22T09:53:53;25.80;99.90
2729;DHT22;1372;47.956;7.830;2023-06-22T09:56:22;25.90;99.90
2729;DHT22;1372;47.956;7.830;2023-06-22T09:58:54;25.90;99.90
2729;DHT22;1372;47.956;7.830;2023-06-22T10:01:32;25.90;99.90
2729;DHT22;1372;47.956;7.830;2023-06-22T10:04:02;26.00;99.90
2729;DHT22;1372;47.956;7.830;2023-06-22T10:06:31;26.00;99.90
2729;DHT22;1372;47.956;7.830;2023-06-22T10:09:02;26.00;99.90
2729;DHT22;1372;47.956;7.830;2023-06-22T10:11:31;26.10;99.90
2729;DHT22;1372;47.956;7.830;2023-06-22T10:14:03;26.20;99.90
2729;DHT22;1372;47.956;7.830;2023-06-22T10:16:32;26.30;99.90
2729;DHT22;1372;47.956;7.830;2023-06-22T10:19:02;26.40;99.90
2729;DHT22;1372;47.956;7.830;2023-06-22T10:21:31;26.40;99.90
2729;DHT22;1372;47.956;7.830;2023-06-22T10:24:04;26.50;99.90
2729;DHT22;1372;47.956;7.830;2023-06-22T10:26:37;26.60;99.90
2729;DHT22;1372;47.956;7.830;2023-06-22T10:29:07;26.70;99.90
2729;DHT22;1372;47.956;7.830;2023-06-22T10:31:39;26.70;99.90
2729;DHT22;1372;47.956;7.830;2023-06-22T10:36:36;26.60;99.90
2729;DHT22;1372;47.956;7.830;2023-06-22T10:39:05;26.60;99.90
2729;DHT22;1372;47.956;7.830;2023-06-22T10:41:35;26.50;99.90
2729;DHT22;1372;47.956;7.830;2023-06-22T10:44:04;26.70;99.90
2729;DHT22;1372;47.956;7.830;2023-06-22T10:46:36;26.70;99.90
2729;DHT22;1372;47.956;7.830;2023-06-22T10:49:05;26.80;99.90
2729;DHT22;1372;47.956;7.830;2023-06-22T10:51:34;26.80;99.90
2729;DHT22;1372;47.956;7.830;2023-06-22T10:54:03;26.80;99.90
2729;DHT22;1372;47.956;7.830;2023-06-22T10:56:32;26.90;99.90
2729;DHT22;1372;47.956;7.830;2023-06-22T10:59:04;26.80;99.90
2729;DHT22;1372;47.956;7.830;2023-06-22T11:01:33;26.90;99.90
2729;DHT22;1372;47.956;7.830;2023-06-22T11:04:04;26.80;99.90
2729;DHT22;1372;47.956;7.830;2023-06-22T11:06:33;26.80;99.90
2729;DHT22;1372;47.956;7.830;2023-06-22T11:09:02;26.80;99.90
2729;DHT22;1372;47.956;7.830;2023-06-22T11:11:50;26.70;99.90
2729;DHT22;1372;47.956;7.830;2023-06-22T11:14:23;26.70;99.90
2729;DHT22;1372;47.956;7.830;2023-06-22T11:16:52;26.60;99.90
2729;DHT22;1372;47.956;7.830;2023-06-22T11:19:22;26.70;99.90
2729;DHT22;1372;47.956;7.830;2023-06-22T11:21:51;26.70;99.90
2729;DHT22;1372;47.956;7.830;2023-06-22T11:24:20;26.70;99.90
2729;DHT22;1372;47.956;7.830;2023-06-22T11:26:50;26.80;99.90
2729;DHT22;1372;47.956;7.830;2023-06-22T11:29:19;26.90;99.90
2729;DHT22;1372;47.956;7.830;2023-06-22T11:32:03;27.00;99.90
2729;DHT22;1372;47.956;7.830;2023-06-22T11:34:34;26.90;99.90
2729;DHT22;1372;47.956;7.830;2023-06-22T11:37:03;27.00;99.90
2729;DHT22;1372;47.956;7.830;2023-06-22T11:39:32;27.10;99.90
2729;DHT22;1372;47.956;7.830;2023-06-22T11:42:09;27.20;99.90
2729;DHT22;1372;47.956;7.830;2023-06-22T11:44:41;27.20;99.90
2729;DHT22;1372;47.956;7.830;2023-06-22T11:47:10;27.20;99.90
2729;DHT22;1372;47.956;7.830;2023-06-22T11:49:41;27.10;99.90
2729;DHT22;1372;47.956;7.830;2023-06-22T11:52:10;27.00;99.90
2729;DHT22;1372;47.956;7.830;2023-06-22T11:54:39;26.90;99.90
2729;DHT22;1372;47.956;7.830;2023-06-22T11:57:10;26.90;99.90
2729;DHT22;1372;47.956;7.830;2023-06-22T11:59:39;26.80;99.90
2729;DHT22;1372;47.956;7.830;2023-06-22T12:02:08;26.70;99.90
2729;DHT22;1372;47.956;7.830;2023-06-22T12:04:37;26.60;99.90
2729;DHT22;1372;47.956;7.830;2023-06-22T12:07:07;26.50;99.90
2729;DHT22;1372;47.956;7.830;2023-06-22T12:09:38;26.50;99.90
2729;DHT22;1372;47.956;7.830;2023-06-22T12:12:08;26.60;99.90
2729;DHT22;1372;47.956;7.830;2023-06-22T12:14:37;26.60;99.90
2729;DHT22;1372;47.956;7.830;2023-06-22T12:17:06;26.60;99.90
2729;DHT22;1372;47.956;7.830;2023-06-22T12:19:35;26.70;99.90
2729;DHT22;1372;47.956;7.830;2023-06-22T12:22:04;26.60;99.90
2729;DHT22;1372;47.956;7.830;2023-06-22T12:24:34;26.70;99.90
2729;DHT22;1372;47.956;7.830;2023-06-22T12:27:04;26.80;99.90
2729;DHT22;1372;47.956;7.830;2023-06-22T12:29:33;26.80;99.90
2729;DHT22;1372;47.956;7.830;2023-06-22T12:32:03;26.60;99.90
2729;DHT22;1372;47.956;7.830;2023-06-22T12:34:34;26.50;99.90
2729;DHT22;1372;47.956;7.830;2023-06-22T12:37:03;26.40;99.90
2729;DHT22;1372;47.956;7.830;2023-06-22T12:39:34;26.30;99.90
2729;DHT22;1372;47.956;7.830;2023-06-22T12:42:06;26.30;99.90
2729;DHT22;1372;47.956;7.830;2023-06-22T12:44:37;26.20;99.90
2729;DHT22;1372;47.956;7.830;2023-06-22T12:47:07;26.20;99.90
2729;DHT22;1372;47.956;7.830;2023-06-22T12:49:37;26.20;99.90
2729;DHT22;1372;47.956;7.830;2023-06-22T12:52:09;26.10;99.90
2729;DHT22;1372;47.956;7.830;2023-06-22T12:54:40;26.10;99.90
2729;DHT22;1372;47.956;7.830;2023-06-22T12:57:22;26.10;99.90
2729;DHT22;1372;47.956;7.830;2023-06-22T12:59:55;26.10;99.90
2729;DHT22;1372;47.956;7.830;2023-06-22T13:02:25;26.10;99.90
2729;DHT22;1372;47.956;7.830;2023-06-22T13:04:55;26.10;99.90
2729;DHT22;1372;47.956;7.830;2023-06-22T13:07:24;26.00;99.90
2729;DHT22;1372;47.956;7.830;2023-06-22T13:09:55;26.00;99.90
2729;DHT22;1372;47.956;7.830;2023-06-22T13:12:23;26.00;99.90
2729;DHT22;1372;47.956;7.830;2023-06-22T13:14:52;26.00;99.90
2729;DHT22;1372;47.956;7.830;2023-06-22T13:17:21;25.90;99.90
2729;DHT22;1372;47.956;7.830;2023-06-22T13:19:50;25.90;99.90
2729;DHT22;1372;47.956;7.830;2023-06-22T13:22:30;25.80;99.90
2729;DHT22;1372;47.956;7.830;2023-06-22T13:25:00;25.90;99.90
2729;DHT22;1372;47.956;7.830;2023-06-22T13:27:30;26.00;99.90
2729;DHT22;1372;47.956;7.830;2023-06-22T13:29:59;26.00;99.90
2729;DHT22;1372;47.956;7.830;2023-06-22T13:32:27;26.00;99.90
2729;DHT22;1372;47.956;7.830;2023-06-22T13:34:57;26.00;99.90
2729;DHT22;1372;47.956;7.830;2023-06-22T13:37:26;25.90;99.90
2729;DHT22;1372;47.956;7.830;2023-06-22T13:39:54;25.90;99.90
2729;DHT22;1372;47.956;7.830;2023-06-22T13:42:27;25.90;99.90
2729;DHT22;1372;47.956;7.830;2023-06-22T13:44:57;25.90;99.90
2729;DHT22;1372;47.956;7.830;2023-06-22T13:47:25;25.90;99.90
2729;DHT22;1372;47.956;7.830;2023-06-22T13:49:56;25.80;99.90
2729;DHT22;1372;47.956;7.830;2023-06-22T13:52:25;25.70;99.90
2729;DHT22;1372;47.956;7.830;2023-06-22T13:54:54;25.70;99.90
2729;DHT22;1372;47.956;7.830;2023-06-22T13:57:23;25.60;99.90
2729;DHT22;1372;47.956;7.830;2023-06-22T13:59:53;25.50;99.90
2729;DHT22;1372;47.956;7.830;2023-06-22T14:02:22;25.40;99.90
2729;DHT22;1372;47.956;7.830;2023-06-22T14:04:51;25.30;99.90
2729;DHT22;1372;47.956;7.830;2023-06-22T14:07:22;25.20;99.90
2729;DHT22;1372;47.956;7.830;2023-06-22T14:09:52;25.10;99.90
2729;DHT22;1372;47.956;7.830;2023-06-22T14:12:21;25.00;99.90
2729;DHT22;1372;47.956;7.830;2023-06-22T14:14:50;25.00;99.90
2729;DHT22;1372;47.956;7.830;2023-06-22T14:17:20;25.00;99.90
2729;DHT22;1372;47.956;7.830;2023-06-22T14:19:52;25.00;99.90
2729;DHT22;1372;47.956;7.830;2023-06-22T14:22:22;25.10;99.90
2729;DHT22;1372;47.956;7.830;2023-06-22T14:24:51;25.10;99.90
2729;DHT22;1372;47.956;7.830;2023-06-22T14:27:21;25.20;99.90
2729;DHT22;1372;47.956;7.830;2023-06-22T14:29:49;25.30;99.90
2729;DHT22;1372;47.956;7.830;2023-06-22T14:32:20;25.40;99.90
2729;DHT22;1372;47.956;7.830;2023-06-22T14:34:48;25.40;99.90
2729;DHT22;1372;47.956;7.830;2023-06-22T14:37:19;25.40;99.90
2729;DHT22;1372;47.956;7.830;2023-06-22T14:39:51;25.40;99.90
2729;DHT22;1372;47.956;7.830;2023-06-22T14:42:19;25.60;99.90
2729;DHT22;1372;47.956;7.830;2023-06-22T14:44:49;26.00;99.90
2729;DHT22;1372;47.956;7.830;2023-06-22T14:47:19;26.60;99.90
2729;DHT22;1372;47.956;7.830;2023-06-22T14:49:48;26.90;99.90
2729;DHT22;1372;47.956;7.830;2023-06-22T14:52:17;26.90;99.90
2729;DHT22;1372;47.956;7.830;2023-06-22T14:54:46;26.70;99.90
2729;DHT22;1372;47.956;7.830;2023-06-22T14:57:15;26.50;99.90
2729;DHT22;1372;47.956;7.830;2023-06-22T14:59:47;26.40;99.90
2729;DHT22;1372;47.956;7.830;2023-06-22T15:02:16;26.30;99.90
2729;DHT22;1372;47.956;7.830;2023-06-22T15:04:47;26.20;99.90
2729;DHT22;1372;47.956;7.830;2023-06-22T15:07:18;26.10;99.90
2729;DHT22;1372;47.956;7.830;2023-06-22T15:09:47;26.10;99.90
2729;DHT22;1372;47.956;7.830;2023-06-22T15:12:16;26.10;99.90
2729;DHT22;1372;47.956;7.830;2023-06-22T15:14:48;26.20;99.90
2729;DHT22;1372;47.956;7.830;2023-06-22T15:17:16;26.30;99.90
2729;DHT22;1372;47.956;7.830;2023-06-22T15:19:47;26.40;99.90
2729;DHT22;1372;47.956;7.830;2023-06-22T15:22:15;26.40;99.90
2729;DHT22;1372;47.956;7.830;2023-06-22T15:24:46;26.50;99.90
2729;DHT22;1372;47.956;7.830;2023-06-22T15:27:16;26.80;99.90
2729;DHT22;1372;47.956;7.830;2023-06-22T15:29:44;27.00;99.90
2729;DHT22;1372;47.956;7.830;2023-06-22T15:32:13;27.20;99.90
2729;DHT22;1372;47.956;7.830;2023-06-22T15:34:47;27.20;99.90
2729;DHT22;1372;47.956;7.830;2023-06-22T15:37:17;27.10;99.90
2729;DHT22;1372;47.956;7.830;2023-06-22T15:39:46;27.00;99.90
2729;DHT22;1372;47.956;7.830;2023-06-22T15:42:15;26.90;99.90
2729;DHT22;1372;47.956;7.830;2023-06-22T15:44:44;26.80;99.90
2729;DHT22;1372;47.956;7.830;2023-06-22T15:47:12;26.80;99.90
2729;DHT22;1372;47.956;7.830;2023-06-22T15:49:41;26.70;99.90
2729;DHT22;1372;47.956;7.830;2023-06-22T15:52:11;26.70;99.90
2729;DHT22;1372;47.956;7.830;2023-06-22T15:54:45;26.70;99.90
2729;DHT22;1372;47.956;7.830;2023-06-22T15:57:14;26.80;99.90
2729;DHT22;1372;47.956;7.830;2023-06-22T15:59:43;26.70;99.90
2729;DHT22;1372;47.956;7.830;2023-06-22T16:02:12;26.70;99.90
2729;DHT22;1372;47.956;7.830;2023-06-22T16:04:41;26.60;99.90
2729;DHT22;1372;47.956;7.830;2023-06-22T16:07:11;26.70;99.90
2729;DHT22;1372;47.956;7.830;2023-06-22T16:09:40;26.60;99.90
2729;DHT22;1372;47.956;7.830;2023-06-22T16:12:10;26.60;99.90
2729;DHT22;1372;47.956;7.830;2023-06-22T16:14:39;26.50;99.90
2729;DHT22;1372;47.956;7.830;2023-06-22T16:17:09;26.50;99.90
2729;DHT22;1372;47.956;7.830;2023-06-22T16:19:38;26.40;99.90
2729;DHT22;1372;47.956;7.830;2023-06-22T16:22:07;26.30;99.90
2729;DHT22;1372;47.956;7.830;2023-06-22T16:24:39;26.20;99.90
2729;DHT22;1372;47.956;7.830;2023-06-22T16:27:08;26.10;99.90